Time;durP1;ratioP1;P1;durP2;ratioP2;P2;SDS_P1;SDS_P2;PMS_P1;PMS_P2;Temp;Humidity;BMP_temperature;BMP_pressure;BME280_temperature;BME280_humidity;BME280_pressure;Samples;Min_cycle;Max_cycle;Signal;HPM_P1;HPM_P2
2022/07/06 00:02:14;;;;;;;1999.90;999.90;;;;;;;19.85;100.00;95788.53;5073876;28;20189;-49
2022/07/06 00:04:39;;;;;;;1999.90;999.90;;;;;;;19.81;100.00;95791.44;5073811;28;20244;-55
2022/07/06 00:07:05;;;;;;;1999.90;999.90;;;;;;;19.83;100.00;95791.78;5073848;28;21042;-61
2022/07/06 00:09:30;;;;;;;1999.90;999.90;;;;;;;19.79;100.00;95799.44;5073810;28;20189;-61
2022/07/06 00:11:55;;;;;;;1999.90;999.90;;;;;;;19.79;100.00;95796.69;5091125;28;20189;-61
2022/07/06 00:14:21;;;;;;;1999.90;999.90;;;;;;;19.78;100.00;95800.69;5090739;28;20242;-61
2022/07/06 00:16:47;;;;;;;1999.90;999.90;;;;;;;19.80;100.00;95792.66;5073682;28;20193;-63
2022/07/06 00:19:12;;;;;;;1999.90;999.90;;;;;;;19.78;100.00;95784.06;5091069;28;20207;-62
2022/07/06 00:21:37;;;;;;;1999.90;999.90;;;;;;;19.79;100.00;95791.13;5074027;28;20209;-61
2022/07/06 00:24:03;;;;;;;1999.90;999.90;;;;;;;19.88;100.00;95787.66;5090656;28;20209;-47
2022/07/06 00:26:29;;;;;;;1999.90;999.90;;;;;;;19.86;100.00;95782.56;5073400;28;20279;-57
2022/07/06 00:28:54;;;;;;;1999.90;999.90;;;;;;;19.76;100.00;95780.94;5073675;28;20626;-58
2022/07/06 00:31:19;;;;;;;1999.90;999.90;;;;;;;19.74;100.00;95775.06;5073727;28;20197;-58
2022/07/06 00:33:45;;;;;;;1999.90;999.90;;;;;;;19.72;100.00;95768.44;5073460;28;20181;-57
2022/07/06 00:36:10;;;;;;;1999.90;999.90;;;;;;;19.62;100.00;95762.06;5090216;28;20331;-58
2022/07/06 00:38:36;;;;;;;1999.90;999.90;;;;;;;19.62;100.00;95769.63;5090396;28;20189;-57
2022/07/06 00:41:01;;;;;;;1999.90;999.90;;;;;;;19.56;100.00;95772.22;5073767;28;20275;-69
2022/07/06 00:43:27;;;;;;;1999.90;999.90;;;;;;;19.49;100.00;95789.84;5090087;28;20195;-52
2022/07/06 00:45:52;;;;;;;1999.90;999.90;;;;;;;19.48;100.00;95915.75;5090746;28;20271;-50
2022/07/06 00:48:17;;;;;;;1999.90;999.90;;;;;;;19.54;100.00;95913.19;5089871;28;20238;-49
2022/07/06 00:50:43;;;;;;;1999.90;999.90;;;;;;;19.53;100.00;95903.34;5089897;28;20219;-48
2022/07/06 00:53:09;;;;;;;1999.90;999.90;;;;;;;19.52;100.00;95909.31;5089917;28;20181;-52
2022/07/06 00:55:41;;;;;;;1999.90;999.90;;;;;;;19.51;100.00;95907.78;5073430;28;20177;-50
2022/07/06 00:58:08;;;;;;;1999.90;999.90;;;;;;;19.48;100.00;95904.69;5073232;28;20220;-51
2022/07/06 01:00:35;;;;;;;1999.90;999.90;;;;;;;19.43;100.00;95904.47;5073014;28;20255;-58
2022/07/06 01:03:00;;;;;;;1999.90;999.90;;;;;;;19.36;100.00;95896.41;5089789;28;20181;-61
2022/07/06 01:05:26;;;;;;;1999.90;999.90;;;;;;;19.29;100.00;95896.63;5090025;28;20209;-61
2022/07/06 01:07:53;;;;;;;1999.90;999.90;;;;;;;19.29;100.00;95888.34;5089771;28;20196;-61
2022/07/06 01:10:20;;;;;;;1999.90;999.90;;;;;;;19.27;100.00;95893.56;5072825;28;20181;-61
2022/07/06 01:12:47;;;;;;;1999.90;999.90;;;;;;;19.28;100.00;95900.63;5073418;28;20189;-61
2022/07/06 01:15:20;;;;;;;1999.90;999.90;;;;;;;19.28;100.00;95881.25;5073529;28;20188;-62
2022/07/06 01:17:46;;;;;;;1999.90;999.90;;;;;;;19.23;100.00;95876.25;5073552;28;20307;-51
2022/07/06 01:20:21;;;;;;;1999.90;999.90;;;;;;;19.21;100.00;95879.47;5072569;28;20356;-59
2022/07/06 01:22:50;;;;;;;1999.90;999.90;;;;;;;19.14;100.00;95871.41;5072878;28;20204;-58
2022/07/06 01:25:16;;;;;;;1999.90;999.90;;;;;;;19.10;100.00;95867.19;5072719;28;20213;-58
2022/07/06 01:27:42;;;;;;;1999.90;999.90;;;;;;;19.07;100.00;95862.53;5072821;28;20232;-58
2022/07/06 01:30:13;;;;;;;1999.90;999.90;;;;;;;18.99;100.00;95861.25;5072588;28;20194;-58
2022/07/06 01:32:39;;;;;;;1999.90;999.90;;;;;;;18.93;100.00;95858.25;5072691;28;20195;-58
2022/07/06 01:35:06;;;;;;;1999.90;999.90;;;;;;;18.84;100.00;95849.84;5089354;28;20181;-58
2022/07/06 01:37:31;;;;;;;1999.90;999.90;;;;;;;18.79;100.00;95841.31;5072496;28;20188;-53
2022/07/06 01:40:02;;;;;;;1999.90;999.90;;;;;;;18.75;100.00;95835.91;5089201;28;20222;-51
2022/07/06 01:42:27;;;;;;;1999.90;999.90;;;;;;;18.73;100.00;95829.28;5072529;28;20193;-50
2022/07/06 01:44:54;;;;;;;1999.90;999.90;;;;;;;18.67;100.00;95833.81;5089351;28;20205;-52
2022/07/06 01:47:19;;;;;;;1999.90;999.90;;;;;;;18.58;100.00;95819.91;5089563;28;20243;-53
2022/07/06 01:49:44;;;;;;;1999.90;999.90;;;;;;;18.58;100.00;95819.91;5089642;28;20617;-50
2022/07/06 01:52:10;;;;;;;1999.90;999.90;;;;;;;18.53;100.00;95818.47;5072674;28;20196;-52
2022/07/06 01:54:35;;;;;;;1999.90;999.90;;;;;;;18.50;100.00;95813.06;5089549;28;20193;-54
2022/07/06 01:57:01;;;;;;;1999.90;999.90;;;;;;;18.48;100.00;95809.94;5089347;28;20185;-58
2022/07/06 01:59:26;;;;;;;1999.90;999.90;;;;;;;18.41;100.00;95799.88;5072802;28;20230;-59
2022/07/06 02:01:52;;;;;;;1999.90;999.90;;;;;;;18.38;100.00;95784.19;5092751;28;20196;-59
2022/07/06 02:04:17;;;;;;;1999.90;999.90;;;;;;;18.34;100.00;95768.88;5092606;28;20209;-58
2022/07/06 02:06:42;;;;;;;1999.90;999.90;;;;;;;18.25;100.00;95741.88;5092445;28;20220;-58
2022/07/06 02:09:08;;;;;;;1999.90;999.90;;;;;;;18.22;100.00;95703.31;5092571;28;20184;-59
2022/07/06 02:11:33;;;;;;;1999.90;999.90;;;;;;;18.17;100.00;95679.00;5092826;28;20278;-60
2022/07/06 02:13:59;;;;;;;1999.90;999.90;;;;;;;18.20;100.00;95636.59;5092635;28;20189;-72
2022/07/06 02:16:24;;;;;;;1999.90;999.90;;;;;;;18.17;100.00;95618.91;5092804;28;20251;-56
2022/07/06 02:18:49;;;;;;;1999.90;999.90;;;;;;;18.18;100.00;95597.59;5092298;28;20215;-56
2022/07/06 02:21:15;;;;;;;1999.90;999.90;;;;;;;18.14;100.00;95585.88;5092486;28;20252;-49
2022/07/06 02:23:40;;;;;;;1999.90;999.90;;;;;;;18.11;100.00;95542.53;5075285;28;20185;-50
2022/07/06 02:26:06;;;;;;;1999.90;999.90;;;;;;;18.05;100.00;95519.44;5075448;28;20274;-50
2022/07/06 02:28:31;;;;;;;1999.90;999.90;;;;;;;18.04;100.00;95509.63;5075485;28;20203;-50
2022/07/06 02:30:57;;;;;;;1999.90;999.90;;;;;;;17.95;100.00;95493.72;5075690;28;20181;-58
2022/07/06 02:33:22;;;;;;;1999.90;999.90;;;;;;;17.96;100.00;95469.63;5092313;28;20189;-51
2022/07/06 02:35:48;;;;;;;1999.90;999.90;;;;;;;17.90;100.00;95454.84;5075038;28;20188;-61
2022/07/06 02:38:13;;;;;;;1999.90;999.90;;;;;;;17.89;100.00;95447.78;5092543;28;20217;-61
2022/07/06 02:40:39;;;;;;;1999.90;999.90;;;;;;;17.89;100.00;95437.47;5075358;28;20192;-60
2022/07/06 02:43:05;;;;;;;1999.90;999.90;;;;;;;17.84;100.00;95423.47;5075095;28;20189;-61
2022/07/06 02:45:31;;;;;;;1999.90;999.90;;;;;;;17.82;100.00;95401.81;5075717;28;20200;-60
2022/07/06 02:47:57;;;;;;;1999.90;999.90;;;;;;;17.72;100.00;95385.63;5075072;28;20185;-60
2022/07/06 02:50:23;;;;;;;1999.90;999.90;;;;;;;17.73;100.00;95362.28;5092668;28;20188;-60
2022/07/06 02:52:49;;;;;;;1999.90;999.90;;;;;;;17.73;100.00;95356.75;5075150;28;20177;-71
2022/07/06 02:55:14;;;;;;;1999.90;999.90;;;;;;;17.63;100.00;95341.38;5075441;28;20343;-72
2022/07/06 02:57:39;;;;;;;1999.90;999.90;;;;;;;17.66;100.00;95324.66;5091891;28;20547;-71
2022/07/06 03:00:06;;;;;;;1999.90;999.90;;;;;;;17.62;100.00;95320.47;5091847;28;20200;-70
2022/07/06 03:02:32;;;;;;;1999.90;999.90;;;;;;;17.57;100.00;95304.50;5075018;28;20192;-70
2022/07/06 03:04:57;;;;;;;1999.90;999.90;;;;;;;17.56;100.00;95291.91;5091769;28;20217;-70
2022/07/06 03:07:23;;;;;;;1999.90;999.90;;;;;;;17.50;100.00;95282.66;5092318;28;20637;-71
2022/07/06 03:09:49;;;;;;;1999.90;999.90;;;;;;;17.43;100.00;95282.91;5091764;28;20657;-59
2022/07/06 03:12:15;;;;;;;1999.90;999.90;;;;;;;17.38;100.00;95266.91;5091937;28;20667;-59
2022/07/06 03:14:41;;;;;;;1999.90;999.90;;;;;;;17.35;100.00;95248.47;5074732;28;20202;-59
2022/07/06 03:17:06;;;;;;;1999.90;999.90;;;;;;;17.34;100.00;95244.94;5091467;28;20181;-60
2022/07/06 03:19:32;;;;;;;1999.90;999.90;;;;;;;17.29;100.00;95234.47;5091562;28;20235;-60
2022/07/06 03:21:57;;;;;;;1999.90;999.90;;;;;;;17.20;100.00;95215.09;5091265;28;20193;-59
2022/07/06 03:24:23;;;;;;;1999.90;999.90;;;;;;;17.18;100.00;95194.66;5074582;28;20224;-59
2022/07/06 03:26:48;;;;;;;1999.90;999.90;;;;;;;17.20;100.00;95168.19;5075089;28;20189;-59
2022/07/06 03:29:14;;;;;;;1999.90;999.90;;;;;;;17.23;100.00;95139.66;5091431;28;20196;-60
2022/07/06 03:31:39;;;;;;;1999.90;999.90;;;;;;;17.26;100.00;95138.00;5091488;28;20211;-59
2022/07/06 03:34:04;;;;;;;1999.90;999.90;;;;;;;17.34;100.00;95128.22;5091173;28;20195;-59
2022/07/06 03:36:30;;;;;;;1999.90;999.90;;;;;;;17.38;100.00;95118.59;5091090;28;20188;-59
2022/07/06 03:38:55;;;;;;;1999.90;999.90;;;;;;;17.46;100.00;95116.34;5091153;28;20203;-60
2022/07/06 03:41:20;;;;;;;1999.90;999.90;;;;;;;17.52;100.00;95109.00;5091063;28;20228;-59
2022/07/06 03:43:46;;;;;;;1999.90;999.90;;;;;;;17.66;100.00;95113.97;5091254;28;20181;-59
2022/07/06 03:46:11;;;;;;;1999.90;999.90;;;;;;;17.86;100.00;95117.09;5091097;28;20208;-55
2022/07/06 03:48:37;;;;;;;1999.90;999.90;;;;;;;17.99;100.00;95132.31;5091378;28;20181;-60
2022/07/06 03:51:02;;;;;;;1999.90;999.90;;;;;;;18.15;100.00;95140.34;5074275;28;20258;-59
2022/07/06 03:53:27;;;;;;;1999.90;999.90;;;;;;;18.22;100.00;95162.19;5091568;28;20180;-60
2022/07/06 03:58:37;;;;;;;1999.90;999.90;;;;;;;18.36;100.00;95178.19;5075847;28;20239;-59
2022/07/06 04:01:02;;;;;;;1999.90;999.90;;;;;;;18.50;100.00;95182.38;5073998;28;20189;-60
2022/07/06 04:03:28;;;;;;;1999.90;999.90;;;;;;;18.58;100.00;95200.19;5073933;28;20187;-57
2022/07/06 04:05:53;;;;;;;1999.90;999.90;;;;;;;18.80;100.00;95214.66;5090791;28;20209;-57
2022/07/06 04:08:19;;;;;;;1999.90;999.90;;;;;;;19.06;100.00;95238.06;5091185;28;20196;-60
2022/07/06 04:10:45;;;;;;;1999.90;999.90;;;;;;;19.45;100.00;95256.53;5074032;28;20216;-59
2022/07/06 04:13:11;;;;;;;1999.90;999.90;;;;;;;19.91;100.00;95305.06;5074312;28;20253;-61
2022/07/06 04:15:36;;;;;;;1999.90;999.90;;;;;;;20.20;100.00;95338.63;5090469;28;20278;-59
2022/07/06 04:18:01;;;;;;;1999.90;999.90;;;;;;;20.38;100.00;95371.84;5090481;28;20195;-59
2022/07/06 04:20:27;;;;;;;1999.90;999.90;;;;;;;20.46;100.00;95384.16;5090431;28;20203;-59
2022/07/06 04:22:52;;;;;;;1999.90;999.90;;;;;;;20.86;100.00;95406.84;5089962;28;20187;-73
2022/07/06 04:25:18;;;;;;;1999.90;999.90;;;;;;;20.86;100.00;95506.78;5090535;28;20208;-63
2022/07/06 04:27:43;;;;;;;1999.90;999.90;;;;;;;20.46;100.00;95572.84;5090573;28;20185;-63
2022/07/06 04:30:09;;;;;;;1999.90;999.90;;;;;;;20.26;100.00;95578.09;5073389;28;20217;-63
2022/07/06 04:32:35;;;;;;;1999.90;999.90;;;;;;;20.02;100.00;95574.34;5072842;28;20193;-63
2022/07/06 04:35:02;;;;;;;1999.90;999.90;;;;;;;19.86;100.00;95569.06;5090592;28;20197;-64
2022/07/06 04:37:28;;;;;;;1999.90;999.90;;;;;;;19.83;100.00;95553.34;5090365;28;20185;-64
2022/07/06 04:39:53;;;;;;;1999.90;999.90;;;;;;;19.76;100.00;95558.41;5090025;28;20213;-63
2022/07/06 04:42:18;;;;;;;1999.90;999.90;;;;;;;19.68;100.00;95548.84;5074057;28;20238;-63
2022/07/06 04:44:45;;;;;;;1999.90;999.90;;;;;;;19.65;100.00;95542.22;5089731;28;20220;-59
2022/07/06 04:47:11;;;;;;;1999.90;999.90;;;;;;;19.59;100.00;95532.97;5090169;28;20201;-59
2022/07/06 04:49:36;;;;;;;1999.90;999.90;;;;;;;19.64;100.00;95510.22;5090086;28;20302;-59
2022/07/06 04:52:02;;;;;;;1999.90;999.90;;;;;;;19.70;100.00;95508.34;5073019;28;20286;-59
2022/07/06 04:54:27;;;;;;;1999.90;999.90;;;;;;;19.80;100.00;95492.50;5089789;28;20189;-59
2022/07/06 04:56:53;;;;;;;1999.90;999.90;;;;;;;20.45;100.00;95446.44;5090163;28;20185;-60
2022/07/06 04:59:18;;;;;;;1999.90;999.90;;;;;;;21.28;100.00;95442.94;5089837;28;20216;-59
2022/07/06 05:01:43;;;;;;;1999.90;999.90;;;;;;;21.43;100.00;95508.47;5090318;28;20343;-59
2022/07/06 05:04:09;;;;;;;1999.90;999.90;;;;;;;21.47;100.00;95561.88;5089808;28;20339;-59
2022/07/06 05:06:35;;;;;;;1999.90;999.90;;;;;;;21.42;100.00;95570.09;5089573;28;20296;-59
2022/07/06 05:09:00;;;;;;;1999.90;999.90;;;;;;;21.54;100.00;95572.66;5073153;28;20189;-59
2022/07/06 05:11:26;;;;;;;1999.90;999.90;;;;;;;22.24;100.00;95602.59;5073632;28;20192;-59
2022/07/06 05:13:52;;;;;;;1999.90;999.90;;;;;;;22.94;100.00;95644.81;5072709;28;20177;-61
2022/07/06 05:16:17;;;;;;;1999.90;999.90;;;;;;;23.31;100.00;95676.69;5089848;28;20189;-59
2022/07/06 05:18:43;;;;;;;1999.90;999.90;;;;;;;23.91;100.00;95707.66;5089310;28;20192;-50
2022/07/06 05:21:08;;;;;;;1999.90;999.90;;;;;;;24.89;100.00;95716.03;5088991;28;20213;-60
2022/07/06 05:23:34;;;;;;;1999.90;999.90;;;;;;;25.71;100.00;95733.03;5073020;28;20212;-59
2022/07/06 05:25:59;;;;;;;1999.90;999.90;;;;;;;26.10;100.00;95769.81;5089104;28;20275;-60
2022/07/06 05:28:25;;;;;;;1999.90;999.90;;;;;;;26.09;100.00;95785.88;5089347;28;20188;-59
2022/07/06 05:30:50;;;;;;;1999.90;999.90;;;;;;;26.55;100.00;95780.91;5089164;28;20200;-60
2022/07/06 05:33:16;;;;;;;1999.90;999.90;;;;;;;26.98;96.46;95787.38;5072294;28;20181;-60
2022/07/06 05:35:41;;;;;;;1999.90;999.90;;;;;;;26.94;92.92;95810.03;5088299;28;20185;-72
2022/07/06 05:38:07;;;;;;;1999.90;999.90;;;;;;;27.40;88.07;95807.78;5072224;28;20187;-57
2022/07/06 05:40:32;;;;;;;1999.90;999.90;;;;;;;27.85;84.65;95817.91;5089580;28;20223;-56
2022/07/06 05:42:57;;;;;;;1999.90;999.90;;;;;;;28.03;80.87;95809.03;5072240;28;20272;-57
2022/07/06 05:45:23;;;;;;;1999.90;999.90;;;;;;;27.37;78.19;95817.19;5072534;28;20208;-56
2022/07/06 05:50:32;;;;;;;1999.90;999.90;;;;;;;27.71;76.22;95812.47;5073714;28;20192;-57
2022/07/06 05:53:03;;;;;;;1999.90;999.90;;;;;;;27.40;77.86;95824.59;5088911;28;20177;-57
2022/07/06 05:55:29;;;;;;;1999.90;999.90;;;;;;;26.80;81.58;95821.41;5072469;28;20192;-72
2022/07/06 05:57:55;;;;;;;1999.90;999.90;;;;;;;27.43;78.07;95817.97;5088801;28;20259;-74
2022/07/06 06:00:21;;;;;;;1999.90;999.90;;;;;;;27.51;76.01;95821.84;5072297;28;20196;-73
2022/07/06 06:02:47;;;;;;;1999.90;999.90;;;;;;;27.24;76.65;95816.84;5072064;28;20201;-73
2022/07/06 06:05:13;;;;;;;1999.90;999.90;;;;;;;28.18;71.73;95814.41;5088582;28;20204;-73
2022/07/06 06:07:39;;;;;;;1999.90;999.90;;;;;;;29.04;66.80;95805.78;5072463;28;20185;-73
2022/07/06 06:10:08;;;;;;;1999.90;999.90;;;;;;;29.17;67.15;95805.25;5089202;28;20189;-73
2022/07/06 06:12:33;;;;;;;1999.90;999.90;;;;;;;29.46;64.27;95813.09;5071663;28;20192;-59
2022/07/06 06:14:59;;;;;;;1999.90;999.90;;;;;;;29.95;61.66;95818.53;5088653;28;20177;-72
2022/07/06 06:17:25;;;;;;;1999.90;999.90;;;;;;;30.10;59.41;95815.38;5088460;28;20233;-73
2022/07/06 06:19:50;;;;;;;1999.90;999.90;;;;;;;30.07;59.32;95816.41;5088637;28;20288;-74
2022/07/06 06:22:16;;;;;;;1999.90;999.90;;;;;;;29.95;59.74;95812.13;5088309;28;20181;-74
2022/07/06 06:24:41;;;;;;;1999.90;999.90;;;;;;;30.28;58.14;95811.94;5088405;28;20288;-74
2022/07/06 06:27:06;;;;;;;1999.90;999.90;;;;;;;30.86;56.10;95818.97;5088447;28;20184;-75
2022/07/06 06:29:32;;;;;;;1999.90;999.90;;;;;;;31.27;54.46;95816.78;5071704;28;20227;-72
2022/07/06 06:31:57;;;;;;;1999.90;999.90;;;;;;;31.54;52.19;95812.91;5071655;28;20195;-60
2022/07/06 06:34:23;;;;;;;1999.90;999.90;;;;;;;32.09;50.13;95809.41;5088515;28;20192;-56
2022/07/06 06:36:48;;;;;;;1999.90;999.90;;;;;;;31.79;49.13;95820.06;5088698;28;20189;-57
2022/07/06 06:39:14;;;;;;;1999.90;999.90;;;;;;;31.62;48.49;95813.06;5088319;28;20177;-57
2022/07/06 06:41:39;;;;;;;1999.90;999.90;;;;;;;31.93;48.53;95813.22;5071377;28;20188;-57
2022/07/06 06:44:04;;;;;;;1999.90;999.90;;;;;;;32.06;47.55;95809.69;5071815;28;20197;-57
2022/07/06 06:46:30;;;;;;;1999.90;999.90;;;;;;;31.88;47.98;95811.22;5073212;28;20265;-57
2022/07/06 06:48:55;;;;;;;1999.90;999.90;;;;;;;32.21;47.21;95813.59;5091771;28;20185;-74
2022/07/06 06:51:21;;;;;;;1999.90;999.90;;;;;;;32.49;46.37;95810.38;5074737;28;20276;-58
2022/07/06 06:53:47;;;;;;;1999.90;999.90;;;;;;;32.44;45.30;95812.00;5091601;28;20174;-64
2022/07/06 06:56:12;;;;;;;1999.90;999.90;;;;;;;32.10;44.55;95810.16;5074676;28;20194;-64
2022/07/06 06:58:37;;;;;;;1999.90;999.90;;;;;;;32.31;44.96;95814.78;5091512;28;20185;-63
2022/07/06 07:01:04;;;;;;;1999.90;999.90;;;;;;;32.66;43.35;95817.31;5091638;28;20181;-63
2022/07/06 07:03:30;;;;;;;1999.90;999.90;;;;;;;33.30;41.45;95815.19;5074340;28;20188;-62
2022/07/06 07:05:55;;;;;;;1999.90;999.90;;;;;;;33.59;40.77;95819.81;5091686;28;20255;-63
2022/07/06 07:08:21;;;;;;;1999.90;999.90;;;;;;;33.02;40.19;95814.94;5092056;28;20184;-57
2022/07/06 07:10:46;;;;;;;1999.90;999.90;;;;;;;32.73;40.82;95811.00;5091383;28;20174;-57
2022/07/06 07:13:12;;;;;;;1999.90;999.90;;;;;;;32.23;42.33;95822.28;5074517;28;20235;-55
2022/07/06 07:15:37;;;;;;;1999.90;999.90;;;;;;;32.23;42.50;95819.47;5091827;28;20177;-56
2022/07/06 07:18:03;;;;;;;1999.90;999.90;;;;;;;32.69;39.66;95821.13;5091055;28;20185;-54
2022/07/06 07:20:29;;;;;;;1999.90;999.90;;;;;;;32.93;40.52;95818.19;5074360;28;20239;-55
2022/07/06 07:22:55;;;;;;;1999.90;999.90;;;;;;;33.19;37.85;95819.00;5091456;28;20215;-57
2022/07/06 07:25:20;;;;;;;1999.90;999.90;;;;;;;33.03;38.71;95820.03;5074412;28;20205;-58
2022/07/06 07:27:46;;;;;;;1999.90;999.90;;;;;;;34.16;36.39;95824.59;5091444;28;20192;-60
2022/07/06 07:30:11;;;;;;;1999.90;999.90;;;;;;;34.42;35.51;95829.44;5091477;28;20185;-56
2022/07/06 07:32:37;;;;;;;1999.90;999.90;;;;;;;34.25;36.29;95826.97;5091741;28;20247;-56
2022/07/06 07:35:03;;;;;;;1999.90;999.90;;;;;;;35.86;33.34;95818.78;5091166;28;20177;-56
2022/07/06 07:37:28;;;;;;;1999.90;999.90;;;;;;;36.13;31.90;95828.63;5074314;28;20219;-57
2022/07/06 07:39:54;;;;;;;1999.90;999.90;;;;;;;35.79;31.62;95839.44;5091174;28;20189;-56
2022/07/06 07:42:19;;;;;;;1999.90;999.90;;;;;;;35.56;31.68;95824.28;5091466;28;20209;-57
2022/07/06 07:44:45;;;;;;;1999.90;999.90;;;;;;;34.81;32.87;95826.47;5091184;28;20217;-56
2022/07/06 07:47:10;;;;;;;1999.90;999.90;;;;;;;35.26;33.19;95826.88;5090994;28;20185;-72
2022/07/06 07:49:35;;;;;;;1999.90;999.90;;;;;;;34.38;33.40;95818.44;5090938;28;20185;-72
2022/07/06 07:52:01;;;;;;;1999.90;999.90;;;;;;;34.98;33.05;95818.28;5073935;28;20185;-71
2022/07/06 07:54:26;;;;;;;1999.90;999.90;;;;;;;35.49;32.22;95816.47;5090663;28;20231;-72
2022/07/06 07:56:52;;;;;;;1999.90;999.90;;;;;;;35.29;32.26;95820.09;5090229;28;20177;-71
2022/07/06 07:59:17;;;;;;;1999.90;999.90;;;;;;;35.77;30.95;95819.34;5090567;28;20185;-71
2022/07/06 08:01:43;;;;;;;1999.90;999.90;;;;;;;36.28;30.48;95823.03;5091177;28;20181;-59
2022/07/06 08:04:08;;;;;;;1999.90;999.90;;;;;;;35.17;31.57;95819.59;5091084;28;20258;-64
2022/07/06 08:06:34;;;;;;;1999.90;999.90;;;;;;;35.90;30.47;95817.13;5090947;28;20189;-61
2022/07/06 08:08:59;;;;;;;1999.90;999.90;;;;;;;35.13;31.23;95812.75;5090248;28;20183;-61
2022/07/06 08:11:25;;;;;;;1999.90;999.90;;;;;;;35.41;30.26;95827.03;5090744;28;20181;-61
2022/07/06 08:13:50;;;;;;;1999.90;999.90;;;;;;;36.27;29.90;95816.56;5090465;28;20185;-61
2022/07/06 08:16:16;;;;;;;1999.90;999.90;;;;;;;36.76;29.57;95810.63;5090541;28;20188;-60
2022/07/06 08:18:41;;;;;;;1999.90;999.90;;;;;;;36.74;28.75;95818.25;5090448;28;20177;-61
2022/07/06 08:21:07;;;;;;;1999.90;999.90;;;;;;;36.39;29.08;95829.16;5073530;28;20246;-70
2022/07/06 08:23:34;;;;;;;1999.90;999.90;;;;;;;36.33;28.71;95820.00;5090289;28;20184;-56
2022/07/06 08:26:01;;;;;;;1999.90;999.90;;;;;;;36.29;29.02;95831.00;5090265;28;20360;-55
2022/07/06 08:28:26;;;;;;;1999.90;999.90;;;;;;;35.07;30.28;95832.78;5073959;28;20209;-56
2022/07/06 08:30:54;;;;;;;1999.90;999.90;;;;;;;36.04;29.71;95821.38;5090712;28;20204;-55
2022/07/06 08:33:19;;;;;;;1999.90;999.90;;;;;;;35.35;30.64;95830.00;5090179;28;20181;-56
2022/07/06 08:35:45;;;;;;;1999.90;999.90;;;;;;;35.29;30.62;95832.19;5090354;28;20203;-53
2022/07/06 08:38:10;;;;;;;1999.90;999.90;;;;;;;35.77;30.26;95830.72;5090341;28;20272;-55
2022/07/06 08:40:39;;;;;;;1999.90;999.90;;;;;;;35.95;30.10;95835.34;5090053;28;20200;-72
2022/07/06 08:43:05;;;;;;;1999.90;999.90;;;;;;;36.20;30.89;95833.59;5073660;28;20181;-63
2022/07/06 08:45:33;;;;;;;1999.90;999.90;;;;;;;36.29;29.88;95830.22;5073939;28;20205;-63
2022/07/06 08:48:04;;;;;;;1999.90;999.90;;;;;;;36.32;29.89;95829.09;5073606;28;20181;-64
2022/07/06 08:50:30;;;;;;;1999.90;999.90;;;;;;;35.83;30.07;95828.47;5073523;28;20181;-64
2022/07/06 08:52:55;;;;;;;1999.90;999.90;;;;;;;35.66;31.60;95831.00;5089865;28;20192;-64
2022/07/06 08:55:21;;;;;;;1999.90;999.90;;;;;;;36.06;30.51;95835.03;5089772;28;20188;-65
2022/07/06 08:57:47;;;;;;;1999.90;999.90;;;;;;;35.98;30.55;95825.72;5089713;28;20177;-73
2022/07/06 09:00:13;;;;;;;1999.90;999.90;;;;;;;36.28;29.89;95840.88;5090306;28;20193;-61
2022/07/06 09:02:40;;;;;;;1999.90;999.90;;;;;;;34.58;32.64;95836.81;5072727;28;20251;-62
2022/07/06 09:05:08;;;;;;;1999.90;999.90;;;;;;;33.66;33.69;95845.44;5072928;28;20220;-62
2022/07/06 09:07:34;;;;;;;1999.90;999.90;;;;;;;34.02;33.90;95839.34;5073365;28;20181;-62
2022/07/06 09:10:00;;;;;;;1999.90;999.90;;;;;;;33.66;33.07;95836.19;5072636;28;20188;-62
2022/07/06 09:12:29;;;;;;;1999.90;999.90;;;;;;;33.12;34.11;95842.31;5089668;28;20185;-62
2022/07/06 09:14:56;;;;;;;1999.90;999.90;;;;;;;32.05;36.89;95842.09;5072717;28;20189;-62
2022/07/06 09:17:25;;;;;;;1999.90;999.90;;;;;;;32.69;35.99;95844.53;5072686;28;20178;-63
2022/07/06 09:19:50;;;;;;;1999.90;999.90;;;;;;;33.22;34.11;95834.91;5072852;28;20205;-62
2022/07/06 09:22:33;;;;;;;1999.90;999.90;;;;;;;32.97;34.84;95844.88;5072930;28;20185;-61
2022/07/06 09:25:14;;;;;;;1999.90;999.90;;;;;;;33.24;35.83;95842.84;5072612;28;20212;-63
2022/07/06 09:27:41;;;;;;;1999.90;999.90;;;;;;;33.64;34.31;95836.72;5072843;28;20188;-62
2022/07/06 09:30:09;;;;;;;1999.90;999.90;;;;;;;33.24;35.15;95843.63;5072519;28;20279;-62
2022/07/06 09:32:50;;;;;;;1999.90;999.90;;;;;;;33.73;34.54;95844.78;5072996;28;20203;-62
2022/07/06 09:35:29;;;;;;;1999.90;999.90;;;;;;;33.42;35.05;95842.81;5072946;28;20193;-57
2022/07/06 09:38:08;;;;;;;1999.90;999.90;;;;;;;33.47;35.32;95849.69;5089355;28;20184;-59
2022/07/06 09:40:41;;;;;;;1999.90;999.90;;;;;;;33.80;33.80;95838.44;5089543;28;20181;-58
2022/07/06 09:43:10;;;;;;;1999.90;999.90;;;;;;;33.24;35.19;95849.28;5072696;28;20177;-59
2022/07/06 09:45:37;;;;;;;1999.90;999.90;;;;;;;33.53;36.48;95845.44;5089188;28;20220;-58
2022/07/06 09:48:10;;;;;;;1999.90;999.90;;;;;;;33.28;36.31;95846.13;5089738;28;20184;-59
2022/07/06 09:50:43;;;;;;;1999.90;999.90;;;;;;;33.44;36.40;95856.44;5072666;28;20246;-58
2022/07/06 09:53:10;;;;;;;1999.90;999.90;;;;;;;34.30;34.57;95850.84;5072725;28;20263;-56
2022/07/06 09:55:35;;;;;;;1999.90;999.90;;;;;;;35.00;32.59;95849.78;5072794;28;20221;-57
2022/07/06 09:58:02;;;;;;;1999.90;999.90;;;;;;;34.81;31.66;95849.19;5089226;28;20185;-57
2022/07/06 10:00:27;;;;;;;1999.90;999.90;;;;;;;35.08;31.18;95853.44;5073616;28;20204;-57
2022/07/06 10:02:53;;;;;;;1999.90;999.90;;;;;;;35.47;30.95;95844.69;5089348;28;20181;-57
2022/07/06 10:05:26;;;;;;;1999.90;999.90;;;;;;;35.32;31.13;95855.97;5072289;28;20262;-56
2022/07/06 10:07:55;;;;;;;1999.90;999.90;;;;;;;36.14;29.53;95841.53;5072423;28;20234;-57
2022/07/06 10:10:24;;;;;;;1999.90;999.90;;;;;;;35.64;30.26;95851.44;5071924;28;20186;-57
2022/07/06 10:12:50;;;;;;;1999.90;999.90;;;;;;;35.81;29.57;95836.78;5072172;28;20177;-58
2022/07/06 10:15:18;;;;;;;1999.90;999.90;;;;;;;35.59;30.53;95852.38;5071780;28;20185;-70
2022/07/06 10:17:46;;;;;;;1999.90;999.90;;;;;;;35.55;30.73;95842.66;5071925;28;20185;-71
2022/07/06 10:20:11;;;;;;;1999.90;999.90;;;;;;;36.37;28.54;95843.16;5088775;28;20308;-71
2022/07/06 10:22:38;;;;;;;1999.90;999.90;;;;;;;36.03;28.56;95850.38;5076088;28;20196;-71
2022/07/06 10:25:05;;;;;;;1999.90;999.90;;;;;;;34.78;30.42;95845.38;5075179;28;20216;-71
2022/07/06 10:27:32;;;;;;;1999.90;999.90;;;;;;;34.46;31.58;95838.38;5075587;28;20188;-71
2022/07/06 10:29:58;;;;;;;1999.90;999.90;;;;;;;34.71;30.87;95842.44;5075309;28;20189;-56
2022/07/06 10:32:25;;;;;;;1999.90;999.90;;;;;;;34.16;32.30;95844.44;5092243;28;20211;-58
2022/07/06 10:34:50;;;;;;;1999.90;999.90;;;;;;;34.81;31.76;95843.50;5075342;28;20185;-58
2022/07/06 10:37:24;;;;;;;1999.90;999.90;;;;;;;34.35;31.16;95844.31;5092382;28;20185;-58
2022/07/06 10:42:55;;;;;;;1999.90;999.90;;;;;;;34.53;31.98;95832.03;5076866;28;20200;-58
2022/07/06 10:45:44;;;;;;;1999.90;999.90;;;;;;;35.12;31.83;95845.31;5075531;28;20200;-58
2022/07/06 10:48:12;;;;;;;1999.90;999.90;;;;;;;34.58;30.70;95831.13;5065504;28;20199;-55
2022/07/06 10:50:45;;;;;;;1999.90;999.90;;;;;;;34.57;31.44;95838.13;5092000;28;20185;-65
2022/07/06 10:53:13;;;;;;;1999.90;999.90;;;;;;;33.74;32.68;95834.97;5091985;28;20238;-66
2022/07/06 10:55:43;;;;;;;1999.90;999.90;;;;;;;32.70;33.45;95831.91;5076350;28;20197;-66